地図

経路データ

SID SEASON NUMBER BASIN SUBBASIN NAME ISO_TIME NATURE LAT LON WMO_WIND WMO_PRES WMO_AGENCY TRACK_TYPE DIST2LAND LANDFALL IFLAG USA_AGENCY USA_ATCF_ID USA_LAT USA_LON USA_RECORD USA_STATUS USA_WIND USA_PRES USA_SSHS USA_R34_NE USA_R34_SE USA_R34_SW USA_R34_NW USA_R50_NE USA_R50_SE USA_R50_SW USA_R50_NW USA_R64_NE USA_R64_SE USA_R64_SW USA_R64_NW USA_POCI USA_ROCI USA_RMW USA_EYE TOKYO_LAT TOKYO_LON TOKYO_GRADE TOKYO_WIND TOKYO_PRES TOKYO_R50_DIR TOKYO_R50_LONG TOKYO_R50_SHORT TOKYO_R30_DIR TOKYO_R30_LONG TOKYO_R30_SHORT TOKYO_LAND CMA_LAT CMA_LON CMA_CAT CMA_WIND CMA_PRES HKO_LAT HKO_LON HKO_CAT HKO_WIND HKO_PRES NEWDELHI_LAT NEWDELHI_LON NEWDELHI_GRADE NEWDELHI_WIND NEWDELHI_PRES NEWDELHI_CI NEWDELHI_DP NEWDELHI_POCI REUNION_LAT REUNION_LON REUNION_TYPE REUNION_WIND REUNION_PRES REUNION_TNUM REUNION_CI REUNION_RMW REUNION_R34_NE REUNION_R34_SE REUNION_R34_SW REUNION_R34_NW REUNION_R50_NE REUNION_R50_SE REUNION_R50_SW REUNION_R50_NW REUNION_R64_NE REUNION_R64_SE REUNION_R64_SW REUNION_R64_NW BOM_LAT BOM_LON BOM_TYPE BOM_WIND BOM_PRES BOM_TNUM BOM_CI BOM_RMW BOM_R34_NE BOM_R34_SE BOM_R34_SW BOM_R34_NW BOM_R50_NE BOM_R50_SE BOM_R50_SW BOM_R50_NW BOM_R64_NE BOM_R64_SE BOM_R64_SW BOM_R64_NW BOM_ROCI BOM_POCI BOM_EYE BOM_POS_METHOD BOM_PRES_METHOD NADI_LAT NADI_LON NADI_CAT NADI_WIND NADI_PRES WELLINGTON_LAT WELLINGTON_LON WELLINGTON_WIND WELLINGTON_PRES DS824_LAT DS824_LON DS824_STAGE DS824_WIND DS824_PRES TD9636_LAT TD9636_LON TD9636_STAGE TD9636_WIND TD9636_PRES TD9635_LAT TD9635_LON TD9635_WIND TD9635_PRES TD9635_ROCI NEUMANN_LAT NEUMANN_LON NEUMANN_CLASS NEUMANN_WIND NEUMANN_PRES MLC_LAT MLC_LON MLC_CLASS MLC_WIND MLC_PRES USA_GUST BOM_GUST BOM_GUST_PER REUNION_GUST REUNION_GUST_PER USA_SEAHGT USA_SEARAD_NE USA_SEARAD_SE USA_SEARAD_SW USA_SEARAD_NW STORM_SPEED STORM_DIR
1944092S07074 1944 26 SI MM NOT_NAMED 1944-04-01 06:00:00 NR -7.10000 73.5000 reunion main 1650 1650 _____O________ -1 -7.10000 73.5000 99 9.90000 5 252
1944092S07074 1944 26 SI MM NOT_NAMED 1944-04-01 09:00:00 NR -7.17945 73.2497 main 1676 1676 _____P________ -1 -7.17945 73.2497 99 5 252
1944092S07074 1944 26 SI MM NOT_NAMED 1944-04-01 12:00:00 NR -7.25960 72.9970 main 1696 1696 _____P________ -1 -7.25960 72.9970 99 5 252
1944092S07074 1944 26 SI MM NOT_NAMED 1944-04-01 15:00:00 NR -7.34124 72.7396 main 1712 1712 _____P________ -1 -7.34124 72.7396 99 3 249
1944092S07074 1944 26 SI MM NOT_NAMED 1944-04-01 18:00:00 NR -7.38015 72.6801 main 1722 1722 _____P____O___ -1 -7.42518 72.4752 99 -7.20000 73.5000 1 3 247
1944092S07074 1944 26 SI MM NOT_NAMED 1944-04-01 21:00:00 NR -7.46043 72.4572 main 1743 1743 _____P____P___ -1 -7.51224 72.2013 99 -7.35683 72.9691 1 6 251
1944092S07074 1944 26 SI MM NOT_NAMED 1944-04-02 00:00:00 TS -7.59310 72.0643 main 1775 1775 _____P___OP___ -1 -7.60320 71.9157 99 -7.80000 71.5000 TC 25 -7.51066 72.4503 1 8 251
1944092S07074 1944 26 SI MM NOT_NAMED 1944-04-02 03:00:00 TS -7.72120 71.6760 main 1807 1807 _____P___PP___ -1 -7.69886 71.6161 99 -7.88997 71.2350 TC 25 -7.65915 71.9564 1 8 252
1944092S07074 1944 26 SI MM NOT_NAMED 1944-04-02 06:00:00 TS -7.85455 71.2636 reunion main 1850 1850 _____O___OO___ -1 -7.80000 71.3000 99 9.90000 -8.00000 70.9000 TC 25 -7.80000 71.5000 1 9 252
1944092S07074 1944 26 SI MM NOT_NAMED 1944-04-02 09:00:00 TS -7.99389 70.8375 main 1890 1890 _____P___PP___ -1 -7.90721 70.9659 99 -8.14256 70.4575 TC 25 -7.93190 71.0889 1 9 252
1944092S07074 1944 26 SI MM NOT_NAMED 1944-04-02 12:00:00 TS -8.12580 70.4426 main 1916 1877 _____P___OP___ -1 -8.02027 70.6154 99 -8.30000 70.0000 TC 25 -8.05713 70.7123 1 8 251
1944092S07074 1944 26 SI MM NOT_NAMED 1944-04-02 15:00:00 TS -8.25834 70.0826 main 1877 1839 _____P___PP___ -1 -8.13880 70.2508 99 -8.45740 69.6425 TC 25 -8.17881 70.3546 1 8 250
1944092S07074 1944 26 SI MM NOT_NAMED 1944-04-02 18:00:00 TS -8.38746 69.7248 main 1839 1808 _____P___OO___ -1 -8.26239 69.8745 99 -8.60000 69.3000 TC 25 -8.30000 70.0000 1 8 251
1944092S07074 1944 26 SI MM NOT_NAMED 1944-04-02 21:00:00 TS -8.50244 69.3470 main 1800 1770 _____P___PP___ -1 -8.39068 69.4889 99 -8.69996 68.9149 TC 25 -8.41668 69.6370 1 8 253
1944092S07074 1944 26 SI MM NOT_NAMED 1944-04-03 00:00:00 TS -8.61933 68.9562 main 1770 1732 _____P___OP___ -1 -8.52328 69.0964 99 -8.80000 68.5000 TC 25 -8.53472 69.2722 1 8 252
1944092S07074 1944 26 SI MM NOT_NAMED 1944-04-03 03:00:00 TS -8.75174 68.5510 main 1724 1686 _____P___PP___ -1 -8.65984 68.6993 99 -8.93497 68.0575 TC 25 -8.66040 68.8963 1 9 251
1944092S07074 1944 26 SI MM NOT_NAMED 1944-04-03 06:00:00 TS -8.90000 68.1333 reunion main 1679 1634 _____O___OO___ -1 -8.80000 68.3000 99 9.90000 -9.10000 67.6000 TC 25 -8.80000 68.5000 1 9 249
1944092S07074 1944 26 SI MM NOT_NAMED 1944-04-03 09:00:00 TS -9.06849 67.6955 main 1634 1597 _____P___PP___ -1 -8.94069 67.8960 99 -9.30000 67.1350 TC 25 -8.96478 68.0554 1 9 248
1944092S07074 1944 26 SI MM NOT_NAMED 1944-04-03 12:00:00 TS -9.24277 67.2596 main 1597 1552 _____P___OP___ -1 -9.08566 67.4860 99 -9.50000 66.7000 TC 25 -9.14264 67.5926 1 9 248
1944092S07074 1944 26 SI MM NOT_NAMED 1944-04-03 15:00:00 TS -9.40522 66.8474 main 1545 1507 _____P___PP___ -1 -9.23409 67.0737 99 -9.65741 66.3349 TC 25 -9.32416 67.1335 1 9 248
1944092S07074 1944 26 SI MM NOT_NAMED 1944-04-03 18:00:00 TS -9.56172 66.4542 main 1507 1472 _____P___OO___ -1 -9.38514 66.6626 99 -9.80000 66.0000 TC 25 -9.50000 66.7000 1 8 248
1944092S07074 1944 26 SI MM NOT_NAMED 1944-04-03 21:00:00 TS -9.71634 66.0719 main 1472 1428 _____P___PP___ -1 -9.53804 66.2561 99 -9.94999 65.6425 TC 25 -9.66101 66.3171 1 8 247
1944092S07074 1944 26 SI MM NOT_NAMED 1944-04-04 00:00:00 TS -9.86889 65.7067 main 1428 1400 _____P___OP___ -1 -9.69199 65.8578 99 -10.1000 65.3000 TC 25 -9.81469 65.9623 1 8 246
1944092S07074 1944 26 SI MM NOT_NAMED 1944-04-04 03:00:00 TS -10.0216 65.3659 main 1400 1362 _____P___PP___ -1 -9.84622 65.4712 99 -10.2574 65.0000 TC 25 -9.96105 65.6265 1 7 246
1944092S07074 1944 26 SI MM NOT_NAMED 1944-04-04 06:00:00 TS -10.1667 65.0333 reunion main 1356 1328 _____O___OO___ -1 -10.0000 65.1000 99 9.90000 -10.4000 64.7000 TC 25 -10.1000 65.3000 1 7 248
1944092S07074 1944 26 SI MM NOT_NAMED 1944-04-04 09:00:00 TS -10.2912 64.6939 main 1328 1301 _____P___PP___ -1 -10.1456 64.7565 99 -10.5000 64.3574 TC 25 -10.2280 64.9677 1 7 250
1944092S07074 1944 26 SI MM NOT_NAMED 1944-04-04 12:00:00 TS -10.4136 64.3568 main 1301 1268 _____P___OP___ -1 -10.2909 64.4281 99 -10.6000 64.0000 TC 25 -10.3498 64.6423 1 7 248
1944092S07074 1944 26 SI MM NOT_NAMED 1944-04-04 15:00:00 TS -10.5503 64.0250 main 1259 1232 _____P___PP___ -1 -10.4367 64.1117 99 -10.7425 63.6425 TC 25 -10.4717 64.3208 1 7 246
1944092S07074 1944 26 SI MM NOT_NAMED 1944-04-04 18:00:00 TS -10.6946 63.7014 main 1232 1206 _____P___OO___ -1 -10.5837 63.8041 99 -10.9000 63.3000 TC 25 -10.6000 64.0000 1 7 245
1944092S07074 1944 26 SI MM NOT_NAMED 1944-04-04 21:00:00 TS -10.8366 63.3937 main 1206 1171 _____P___PP___ -1 -10.7328 63.5023 99 -11.0424 62.9999 TC 25 -10.7346 63.6789 1 7 244
1944092S07074 1944 26 SI MM NOT_NAMED 1944-04-05 00:00:00 TS -10.9874 63.0868 main 1171 1145 _____P___OP___ -1 -10.8847 63.2030 99 -11.2000 62.7000 TC 25 -10.8773 63.3573 1 7 243
1944092S07074 1944 26 SI MM NOT_NAMED 1944-04-05 03:00:00 TS -11.1547 62.7643 main 1135 1110 _____P___PP___ -1 -11.0402 62.9033 99 -11.3925 62.3575 TC 25 -11.0314 63.0320 1 7 242
1944092S07074 1944 26 SI MM NOT_NAMED 1944-04-05 06:00:00 TS -11.3333 62.4333 reunion main 1105 1071 _____O___OO___ -1 -11.2000 62.6000 99 9.90000 -11.6000 62.0000 TC 25 -11.2000 62.7000 1 8 241
1944092S07074 1944 26 SI MM NOT_NAMED 1944-04-05 09:00:00 TS -11.5164 62.0947 main 1071 1037 _____P___PP___ -1 -11.3521 62.2811 99 -11.8075 61.6500 TC 25 -11.3896 62.3531 1 8 241
1944092S07074 1944 26 SI MM NOT_NAMED 1944-04-05 12:00:00 TS -11.6997 61.7535 main 1037 999 _____P___OP___ -1 -11.5068 61.9603 99 -12.0000 61.3000 TC 25 -11.5924 62.0000 1 8 242
1944092S07074 1944 26 SI MM NOT_NAMED 1944-04-05 15:00:00 TS -11.8717 61.4090 main 999 976 _____P___PP___ -1 -11.6661 61.6378 99 -12.1500 60.9424 TC 25 -11.7990 61.6469 1 8 243
1944092S07074 1944 26 SI MM NOT_NAMED 1944-04-05 18:00:00 TS -12.0440 61.0712 main 976 944 _____P___OO___ -1 -11.8320 61.3135 99 -12.3000 60.6000 TC 25 -12.0000 61.3000 1 7 242
1944092S07074 1944 26 SI MM NOT_NAMED 1944-04-05 21:00:00 TS -12.2190 60.7517 main 944 912 _____P___PP___ -1 -12.0063 60.9876 99 -12.4849 60.2999 TC 25 -12.1658 60.9675 1 7 240
1944092S07074 1944 26 SI MM NOT_NAMED 1944-04-06 00:00:00 TS -12.4061 60.4340 main 908 877 _____P___OP___ -1 -12.1911 60.6600 99 -12.7000 60.0000 TC 25 -12.3273 60.6420 1 7 239
1944092S07074 1944 26 SI MM NOT_NAMED 1944-04-06 03:00:00 TS -12.6079 60.1005 main 877 847 _____P___PP___ -1 -12.3884 60.3308 99 -12.9350 59.6500 TC 25 -12.5002 60.3206 1 8 237
1944092S07074 1944 26 SI MM NOT_NAMED 1944-04-06 06:00:00 TS -12.8333 59.7667 reunion main 847 806 _____O___OO___ -1 -12.6000 60.0000 99 9.90000 -13.2000 59.3000 TC 25 -12.7000 60.0000 1 8 232
1944092S07074 1944 26 SI MM NOT_NAMED 1944-04-06 09:00:00 TS -13.1063 59.4375 main 804 764 _____P___PP___ -1 -12.8531 59.6375 99 -13.5074 59.0000 TC 25 -12.9583 59.6751 1 9 229
1944092S07074 1944 26 SI MM NOT_NAMED 1944-04-06 12:00:00 TS -13.3888 59.1064 main 764 736 _____P___OP___ -1 -13.1239 59.2690 99 -13.8000 58.7000 TC 25 -13.2423 59.3501 1 9 231
1944092S07074 1944 26 SI MM NOT_NAMED 1944-04-06 15:00:00 TS -13.6500 58.7587 main 725 697 _____P___PP___ -1 -13.4049 58.9010 99 -14.0150 58.3499 TC 25 -13.5302 59.0251 1 8 233
1944092S07074 1944 26 SI MM NOT_NAMED 1944-04-06 18:00:00 TS -13.8961 58.4134 main 697 672 _____P___OO___ -1 -13.6884 58.5401 99 -14.2000 58.0000 TC 25 -13.8000 58.7000 1 8 234
1944092S07074 1944 26 SI MM NOT_NAMED 1944-04-06 21:00:00 TS -14.1362 58.0684 main 672 649 _____P___PP___ -1 -13.9671 58.1928 99 -14.4075 57.6700 TC 30 -14.0339 58.3425 1 8 234
1944092S07074 1944 26 SI MM NOT_NAMED 1944-04-07 00:00:00 TS -14.3596 57.7520 main 637 626 _____P___OP___ -1 -14.2335 57.8659 99 -14.6000 57.4000 TC 35 -14.2452 57.9901 1 7 233
1944092S07074 1944 26 SI MM NOT_NAMED 1944-04-07 03:00:00 TS -14.5597 57.4845 main 615 604 _____P___PP___ -1 -14.4803 57.5660 99 -14.7649 57.2199 TC 35 -14.4339 57.6676 1 6 231
1944092S07074 1944 26 SI MM NOT_NAMED 1944-04-07 06:00:00 TS -14.7333 57.2667 reunion main 604 583 _____O___OO___ -1 -14.7000 57.3000 99 9.90000 -14.9000 57.1000 TC 35 -14.6000 57.4000 2 5 231
1944092S07074 1944 26 SI MM NOT_NAMED 1944-04-07 09:00:00 TS -14.8617 57.1026 main 583 573 _____P___PP___ -1 -14.8388 57.0905 99 -15.0000 56.9999 TC 35 -14.7463 57.2172 2 4 230
1944092S07074 1944 26 SI MM NOT_NAMED 1944-04-07 12:00:00 TS -14.9737 56.9684 main 573 563 _____P___OP___ -1 -14.9490 56.9157 99 -15.1000 56.9000 TC 35 -14.8722 57.0896 2 3 228
1944092S07074 1944 26 SI MM NOT_NAMED 1944-04-07 15:00:00 TS -15.0927 56.8369 main 564 553 _____P___PP___ -1 -15.0412 56.7684 99 -15.2500 56.7500 TC 35 -14.9870 56.9922 2 3 226
1944092S07074 1944 26 SI MM NOT_NAMED 1944-04-07 18:00:00 TS -15.2086 56.7139 main 554 543 _____P___OO___ -1 -15.1259 56.6418 99 -15.4000 56.6000 TC 35 -15.1000 56.9000 2 3 226
1944092S07074 1944 26 SI MM NOT_NAMED 1944-04-07 21:00:00 TS -15.3049 56.6077 main 545 534 _____P___PP___ -1 -15.2137 56.5287 99 -15.4925 56.5074 TC 35 -15.2087 56.7870 2 3 226
1944092S07074 1944 26 SI MM NOT_NAMED 1944-04-08 00:00:00 TS -15.4116 56.4981 main 536 525 _____P___OP___ -1 -15.3150 56.4221 99 -15.6000 56.4000 TC 35 -15.3199 56.6722 2 3 224
1944092S07074 1944 26 SI MM NOT_NAMED 1944-04-08 03:00:00 TS -15.5546 56.3588 main 516 508 _____P___PP___ -1 -15.4402 56.3149 99 -15.7775 56.2150 TC 35 -15.4462 56.5463 2 4 222
1944092S07074 1944 26 SI MM NOT_NAMED 1944-04-08 06:00:00 TS -15.7333 56.2000 reunion main 511 492 _____O___OO___ -1 -15.6000 56.2000 99 9.90000 -16.0000 56.0000 TC 35 -15.6000 56.4000 2 5 220
1944092S07074 1944 26 SI MM NOT_NAMED 1944-04-08 09:00:00 TS -15.9458 56.0121 main 495 471 _____P___PP___ -1 -15.8496 56.0229 99 -16.2200 55.7999 TC 35 -15.7679 56.2134 2 6 218
1944092S07074 1944 26 SI MM NOT_NAMED 1944-04-08 12:00:00 TS -16.2003 55.8153 main 471 449 _____P___OP___ -1 -16.1332 55.8384 99 -16.5000 55.6000 TC 35 -15.9676 56.0074 2 7 214
1944092S07074 1944 26 SI MM NOT_NAMED 1944-04-08 15:00:00 TS -16.5090 55.6117 main 449 425 _____P___PP___ -1 -16.4409 55.6522 99 -16.8775 55.3851 TC 35 -16.2085 55.7977 2 8 210
1944092S07074 1944 26 SI MM NOT_NAMED 1944-04-08 18:00:00 TS -16.8544 55.4234 main 420 398 _____P___OO___ -1 -16.7631 55.4702 99 -17.3000 55.2000 TC 35 -16.5000 55.6000 2 8 205
1944092S07074 1944 26 SI MM NOT_NAMED 1944-04-08 21:00:00 TS -17.2301 55.2598 main 398 376 _____P___PP___ -1 -17.0898 55.2980 99 -17.7225 55.0700 TC 35 -16.8781 55.4116 2 8 201
1944092S07074 1944 26 SI MM NOT_NAMED 1944-04-09 00:00:00 TS -17.6038 55.1274 main 376 347 _____P___OP___ -1 -17.4114 55.1415 99 -18.1000 55.0000 TC 35 -17.3000 55.2406 2 7 197
1944092S07074 1944 26 SI MM NOT_NAMED 1944-04-09 03:00:00 TS -17.9400 55.0303 main 348 314 _____P___PP___ -1 -17.7180 55.0069 99 -18.3800 54.9849 TC 35 -17.7219 55.0991 2 7 194
1944092S07074 1944 26 SI MM NOT_NAMED 1944-04-09 06:00:00 TS -18.2333 54.9667 reunion main 314 282 _____O___OO___ -1 -18.0000 54.9000 99 9.90000 -18.6000 55.0000 TC 35 -18.1000 55.0000 2 5 190
1944092S07074 1944 26 SI MM NOT_NAMED 1944-04-09 09:00:00 TS -18.4721 54.9255 main 282 260 _____P___PP___ -1 -18.2097 54.8200 99 -18.8150 55.0000 TC 35 -18.3915 54.9564 2 4 186
1944092S07074 1944 26 SI MM NOT_NAMED 1944-04-09 12:00:00 TS -18.6765 54.9066 main 260 249 _____P___OP___ -1 -18.3970 54.7653 99 -19.0000 55.0000 TC 35 -18.6324 54.9545 2 4 183
1944092S07074 1944 26 SI MM NOT_NAMED 1944-04-09 15:00:00 TS -18.8551 54.9034 main 238 227 _____P___PP___ -1 -18.5681 54.7348 99 -19.1650 55.0000 TC 35 -18.8321 54.9753 2 3 179
1944092S07074 1944 26 SI MM NOT_NAMED 1944-04-09 18:00:00 TS -19.0098 54.9090 main 227 216 _____P___OO___ -1 -18.7293 54.7271 99 -19.3000 55.0000 TC 35 -19.0000 55.0000 2 3 0
1944092S07074 1944 26 SI MM NOT_NAMED 1944-04-09 21:00:00 TS -19.1351 54.9020 main 216 194 _____P___PP___ -1 -18.8869 54.7411 99 -19.3850 54.9851 TC 35 -19.1334 54.9799 2 3 0
1944092S07074 1944 26 SI MM NOT_NAMED 1944-04-10 00:00:00 TS -19.2632 54.9127 main 194 181 _____P___OP___ -1 -19.0470 54.7754 99 -19.5000 55.0000 TC 35 -19.2424 54.9628 2 3 169
1944092S07074 1944 26 SI MM NOT_NAMED 1944-04-10 03:00:00 TS -19.4329 54.9569 main 181 159 _____P___PP___ -1 -19.2160 54.8288 99 -19.7275 55.0775 TC 35 -19.3553 54.9643 2 4 163
1944092S07074 1944 26 SI MM NOT_NAMED 1944-04-10 06:00:00 TS -19.6333 55.0333 reunion main 159 124 _____O___OO___ -1 -19.4000 54.9000 99 9.90000 -20.0000 55.2000 TC 35 -19.5000 55.0000 2 5 159
1944092S07074 1944 26 SI MM NOT_NAMED 1944-04-10 09:00:00 TS -19.8660 55.1371 main 124 100 _____P___PP___ -1 -19.6298 54.9724 99 -20.2500 55.3500 TC 35 -19.7182 55.0889 2 5 156
1944092S07074 1944 26 SI MM NOT_NAMED 1944-04-10 12:00:00 TS -20.1144 55.2592 main 100 67 _____P___OP___ -1 -19.8732 55.0653 99 -20.5000 55.5000 TC 35 -19.9701 55.2122 2 6 156
1944092S07074 1944 26 SI MM NOT_NAMED 1944-04-10 15:00:00 TS -20.3735 55.3769 main 67 44 _____P___PP___ -1 -20.1262 55.1760 99 -20.7575 55.6001 TC 35 -20.2369 55.3545 2 6 156
1944092S07074 1944 26 SI MM NOT_NAMED 1944-04-10 18:00:00 TS -20.6284 55.5006 main 44 22 _____P___OO___ -1 -20.3851 55.3018 99 -21.0000 55.7000 TC 35 -20.5000 55.5000 2 5 154
1944092S07074 1944 26 SI MM NOT_NAMED 1944-04-10 21:00:00 TS -20.8593 55.6345 main 11 0 _____P___PP___ -1 -20.6458 55.4398 99 -21.2000 55.8426 TC 35 -20.7321 55.6211 2 5 150
1944092S07074 1944 26 SI MM NOT_NAMED 1944-04-11 00:00:00 TS -21.0873 55.7767 main 0 0 _____P___OP___ -1 -20.9044 55.5874 99 -21.4000 56.0000 TC 35 -20.9574 55.7428 2 5 150
1944092S07074 1944 26 SI MM NOT_NAMED 1944-04-11 03:00:00 TS -21.3287 55.9199 main 10 10 _____P___PP___ -1 -21.1571 55.7418 99 -21.6500 56.1500 TC 35 -21.1790 55.8680 2 6 150
1944092S07074 1944 26 SI MM NOT_NAMED 1944-04-11 06:00:00 TS -21.5667 56.0667 reunion main 45 45 _____O___OO___ -1 -21.4000 55.9000 99 9.90000 -21.9000 56.3000 TC 35 -21.4000 56.0000 2 5 150
1944092S07074 1944 26 SI MM NOT_NAMED 1944-04-11 09:00:00 TS -21.7829 56.2046 main 69 69 _____P___PP___ -1 -21.6123 56.0210 99 -22.1075 56.4501 TC 35 -21.6290 56.1429 2 5 149
1944092S07074 1944 26 SI MM NOT_NAMED 1944-04-11 12:00:00 TS -21.9910 56.3458 main 93 93 _____P___OP___ -1 -21.8154 56.1447 99 -22.3000 56.6000 TC 35 -21.8575 56.2926 2 5 147
1944092S07074 1944 26 SI MM NOT_NAMED 1944-04-11 15:00:00 TS -22.1981 56.4906 main 123 123 _____P___PP___ -1 -22.0123 56.2757 99 -22.5000 56.7500 TC 35 -22.0822 56.4460 2 5 147
1944092S07074 1944 26 SI MM NOT_NAMED 1944-04-11 18:00:00 TS -22.3748 56.6158 main 148 148 _____P___OO___ -1 -22.2056 56.4185 99 -22.7000 56.9000 TC 35 -22.3000 56.6000 2 4 146
1944092S07074 1944 26 SI MM NOT_NAMED 1944-04-11 21:00:00 TS -22.5428 56.7419 main 163 163 _____P___PP___ -1 -22.3983 56.5776 99 -22.9000 57.0499 TC 35 -22.5088 56.7520 2 4 145
1944092S07074 1944 26 SI MM NOT_NAMED 1944-04-12 00:00:00 TS -22.7003 56.8672 main 193 193 _____P___OP___ -1 -22.5930 56.7578 99 -23.1000 57.2000 TC 35 -22.7101 56.9022 2 4 141
1944092S07074 1944 26 SI MM NOT_NAMED 1944-04-12 03:00:00 NR -22.8306 56.9929 main 208 208 _____P____P___ -1 -22.7927 56.9637 99 TC -22.9063 57.0513 2 4 136
1944092S07074 1944 26 SI MM NOT_NAMED 1944-04-12 06:00:00 NR -23.0200 57.2000 reunion main 238 238 _____O____O___ -1 -23.0000 57.2000 99 9.90000 -23.1000 57.2000 2 6 131
1944092S07074 1944 26 SI MM NOT_NAMED 1944-04-12 09:00:00 NR -23.2169 57.4700 main 275 275 _____P________ -1 -23.2169 57.4700 99 2 7 129
1944092S07074 1944 26 SI MM NOT_NAMED 1944-04-12 12:00:00 NR -23.4426 57.7712 main 312 312 _____P________ -1 -23.4426 57.7712 99 2 7 129
1944092S07074 1944 26 SI MM NOT_NAMED 1944-04-12 15:00:00 NR -23.6757 58.0994 main 357 357 _____P________ -1 -23.6757 58.0994 99 2 8 127
1944092S07074 1944 26 SI MM NOT_NAMED 1944-04-12 18:00:00 NR -23.9146 58.4506 main 388 388 _____P________ -1 -23.9146 58.4506 99 8 126
1944092S07074 1944 26 SI MM NOT_NAMED 1944-04-12 21:00:00 NR -24.1580 58.8205 main 428 428 _____P________ -1 -24.1580 58.8205 99 8 125
1944092S07074 1944 26 SI MM NOT_NAMED 1944-04-13 00:00:00 NR -24.4042 59.2049 main 462 462 _____P________ -1 -24.4042 59.2049 99 9 125
1944092S07074 1944 26 SI MM NOT_NAMED 1944-04-13 03:00:00 NR -24.6520 59.5995 main 508 508 _____P________ -1 -24.6520 59.5995 99 9 124
1944092S07074 1944 26 SI MM NOT_NAMED 1944-04-13 06:00:00 NR -24.9000 60.0000 reunion main 545 _____O________ -1 -24.9000 60.0000 99 9.90000 9 124

IBTrACS Databaseについて

本データベースは、米国NOAAが公開する1842年以降の世界の熱帯低気圧のベストトラックデータアーカイブInternational Best Track Archive for Climate Stewardship (IBTrACS)を、ウェブで閲覧しやすい形式に変換したものです。

最終更新日:2021-11-26